Latest Weather Observations for Nambour

IDQ60801

Issued at 11:02 pm EST Wednesday 26 September 2018 (issued every 10 minutes, with the page automatically refreshed every 10 minutes)

About weather observations | Map of weather stations | Latest weather observations for QLD | Other Formats
Station Details ID: 040988 Name: NAMBOUR DAFF - HILLSIDE Lat: -26.64 Lon: 152.94 Height: 53.24 m
Data from the previous 72 hours. | See also: Recent months at Nambour
Date/Time
EST
Temp
°C
App
Temp
°C
Dew
Point
°C
Rel
Hum
%
Delta-T
°C
Wind Press
QNH
hPa
Press
MSL
hPa
Rain since
9am
mm
Dir  Spd
km/h
Gust
km/h
Spd
kts
Gust
kts
26/11:00pm 17.9 17.4 12.1 69 3.2 NW 6 13 3 7 1020.6 1020.5 0.0
26/10:30pm 16.9 16.6 12.6 76 2.4 NW 6 9 3 5 1020.5 1020.4 0.0
26/10:00pm 15.6 16.4 12.7 83 1.6 CALM 0 0 0 0 1020.6 1020.5 0.0
26/09:30pm 15.4 16.2 12.7 84 1.5 CALM 0 0 0 0 1020.5 1020.4 0.0
26/09:00pm 14.9 15.5 12.0 83 1.6 CALM 0 0 0 0 1020.4 1020.3 0.0
26/08:30pm 14.8 15.4 11.8 82 1.6 CALM 0 0 0 0 1020.2 1020.1 0.0
26/08:00pm 15.0 15.5 11.6 80 1.8 CALM 0 0 0 0 1020.0 1019.9 0.0
26/07:30pm 15.6 16.0 11.4 76 2.3 CALM 0 0 0 0 1019.9 1019.8 0.0
26/07:00pm 16.9 16.6 11.4 70 3.0 WNW 4 6 2 3 1019.7 1019.6 0.0
26/06:30pm 17.9 17.9 11.2 65 3.6 N 2 4 1 2 1019.4 1019.3 0.0
26/06:00pm 18.5 18.2 11.3 63 3.9 N 4 7 2 4 1018.9 1018.8 0.0
26/05:30pm 19.2 18.3 11.3 60 4.3 NE 7 13 4 7 1018.5 1018.4 0.0
26/05:00pm 19.8 17.7 11.0 57 4.8 NNE 13 24 7 13 1018.4 1018.3 0.0
26/04:30pm 20.1 18.4 11.1 56 4.9 N 11 17 6 9 1018.2 1018.1 0.0
26/04:00pm 20.5 18.9 11.4 56 5.0 N 11 17 6 9 1018.2 1018.1 0.0
26/03:30pm 20.9 19.8 11.8 56 5.1 NE 9 19 5 10 1018.5 1018.4 0.0
26/03:00pm 20.6 19.2 12.1 58 4.8 NE 11 19 6 10 1018.3 1018.2 0.0
26/02:30pm 20.6 18.3 11.8 57 4.9 ENE 15 24 8 13 1018.5 1018.4 0.0
26/02:00pm 21.2 19.3 11.8 55 5.2 NE 13 22 7 12 1018.7 1018.6 0.0
26/01:30pm 20.8 18.9 11.7 56 5.1 E 13 20 7 11 1019.2 1019.1 0.0
26/01:00pm 21.2 19.5 12.3 57 5.0 ENE 13 19 7 10 1019.7 1019.6 0.0
26/12:30pm 22.3 21.5 12.8 55 5.4 NNE 9 17 5 9 1020.0 1019.9 0.0
26/12:00pm 20.9 19.8 12.1 57 4.9 NE 9 15 5 8 1020.7 1020.6 0.0
26/11:30am 21.2 19.6 11.5 54 5.4 E 11 19 6 10 1021.1 1021.0 0.0
26/11:00am 20.9 20.5 12.3 58 4.8 NE 6 9 3 5 1021.6 1021.5 0.0
26/10:30am 20.5 19.8 11.4 56 5.0 NNE 6 11 3 6 1022.0 1021.9 0.0
26/10:00am 21.1 20.8 12.8 59 4.7 NE 6 11 3 6 1022.2 1022.1 0.0
26/09:30am 20.7 20.9 13.2 62 4.3 NE 4 11 2 6 1022.5 1022.4 0.0
26/09:00am 19.9 20.1 13.1 65 3.9 E 4 11 2 6 1022.5 1022.4 13.0
26/08:30am 19.1 19.4 14.4 74 2.7 ESE 6 13 3 7 1022.6 1022.5 13.0
26/08:00am 18.9 19.5 15.4 80 2.1 E 6 9 3 5 1022.4 1022.3 13.0
26/07:30am 17.0 18.4 15.3 90 1.0 ENE 2 4 1 2 1022.1 1022.0 13.0
26/07:00am 15.6 17.2 14.8 95 0.5 CALM 0 0 0 0 1021.9 1021.8 13.0
26/06:30am 14.9 16.3 14.3 96 0.3 CALM 0 0 0 0 1021.7 1021.6 13.0
26/06:00am 14.3 15.5 13.7 96 0.3 CALM 0 0 0 0 1021.5 1021.4 13.0
26/05:30am 14.2 15.3 13.6 96 0.3 CALM 0 2 0 1 1021.3 1021.2 13.0
26/05:00am 13.8 14.8 13.2 96 0.3 CALM 0 0 0 0 1021.1 1021.0 13.0
26/04:30am 13.8 14.8 13.2 96 0.3 CALM 0 0 0 0 1020.9 1020.8 12.8
26/04:00am 13.7 14.7 13.1 96 0.3 CALM 0 0 0 0 1020.7 1020.6 12.8
26/03:30am 13.7 14.2 12.9 95 0.4 SE 2 6 1 3 1020.7 1020.6 12.8
26/03:00am 14.1 15.1 13.3 95 0.4 CALM 0 0 0 0 1020.7 1020.6 12.8
26/02:30am 14.4 15.6 13.8 96 0.3 CALM 0 2 0 1 1021.4 1021.3 12.8
26/02:00am 14.2 15.3 13.4 95 0.4 CALM 0 0 0 0 1021.8 1021.7 12.8
26/01:30am 14.4 15.6 13.8 96 0.3 CALM 0 0 0 0 1022.0 1021.9 12.8
26/01:00am 14.2 15.3 13.4 95 0.4 CALM 0 0 0 0 1022.4 1022.3 12.8
26/12:30am 14.3 15.4 13.5 95 0.4 CALM 0 4 0 2 1022.7 1022.6 12.8
26/12:00am 14.2 15.0 13.6 96 0.3 SSW 2 7 1 4 1023.0 1022.9 12.8
 
Date/Time
EST
Temp
°C
App
Temp
°C
Dew
Point
°C
Rel
Hum
%
Delta-T
°C
Wind Press
QNH
hPa
Press
MSL
hPa
Rain since
9am
mm
Dir  Spd
km/h
Gust
km/h
Spd
kts
Gust
kts
25/11:30pm 13.9 14.9 13.1 95 0.4 CALM 0 0 0 0 1023.1 1023.0 12.8
25/11:00pm 14.3 14.6 13.5 95 0.4 SW 4 4 2 2 1023.4 1023.3 12.8
25/10:30pm 14.8 15.3 14.0 95 0.5 SW 4 6 2 3 1023.5 1023.4 12.8
25/10:00pm 14.7 15.9 13.9 95 0.4 CALM 0 4 0 2 1023.7 1023.6 12.8
25/09:30pm 14.8 16.0 13.8 94 0.6 CALM 0 0 0 0 1023.7 1023.6 12.8
25/09:00pm 15.0 16.2 13.9 93 0.6 CALM 0 2 0 1 1023.8 1023.7 12.8
25/08:30pm 15.2 15.7 14.1 93 0.6 SW 4 6 2 3 1024.3 1024.2 11.4
25/08:00pm 15.4 16.3 14.1 92 0.7 SSW 2 6 1 3 1024.1 1024.0 5.2
25/07:30pm 15.7 16.3 14.2 91 0.9 SW 4 9 2 5 1023.6 1023.5 5.0
25/07:00pm 16.3 17.1 13.8 85 1.4 ESE 2 6 1 3 1023.0 1022.9 4.4
25/06:30pm 16.3 17.3 13.2 82 1.7 CALM 0 0 0 0 1022.7 1022.6 4.4
25/06:00pm 17.2 17.7 12.9 76 2.4 NE 2 6 1 3 1022.7 1022.6 4.4
25/05:30pm 17.3 17.8 12.8 75 2.5 ENE 2 6 1 3 1022.5 1022.4 4.4
25/05:00pm 17.6 18.1 12.9 74 2.6 E 2 6 1 3 1022.1 1022.0 4.4
25/04:30pm 17.6 18.3 13.5 77 2.3 SE 2 6 1 3 1022.1 1022.0 4.4
25/04:00pm 17.6 18.8 13.7 78 2.2 CALM 0 0 0 0 1022.1 1022.0 4.4
25/03:30pm 17.2 18.1 13.9 81 1.9 W 2 6 1 3 1022.1 1022.0 4.4
25/03:00pm 16.8 17.1 13.5 81 1.9 SE 4 9 2 5 1022.2 1022.1 4.4
25/02:30pm 17.4 16.0 12.3 72 2.8 ESE 11 22 6 12 1022.1 1022.0 4.2
25/02:00pm 18.7 19.4 14.6 77 2.4 SE 4 7 2 4 1022.0 1021.9 4.0
25/01:30pm 18.0 19.4 15.3 84 1.6 SSW 2 7 1 4 1022.4 1022.3 4.0
25/01:00pm 17.4 18.5 14.5 83 1.7 SSE 2 7 1 4 1022.8 1022.7 4.0
25/12:30pm 17.9 17.6 14.4 80 2.0 E 9 15 5 8 1023.1 1023.0 3.6
25/12:00pm 17.9 18.9 14.2 79 2.1 SW 2 4 1 2 1023.3 1023.2 3.6
25/11:30am 17.6 18.8 15.0 85 1.5 W 2 6 1 3 1023.9 1023.8 3.6
25/11:00am 18.0 18.4 14.7 81 1.9 SE 6 13 3 7 1024.2 1024.1 1.4
25/10:30am 17.5 18.9 15.3 87 1.3 WNW 2 6 1 3 1024.6 1024.5 1.4
25/10:00am 16.8 17.3 15.0 89 1.0 WSW 6 13 3 7 1024.9 1024.8 1.2
25/09:30am 17.1 17.3 13.2 78 2.2 ESE 4 9 2 5 1025.1 1025.0 0.0
25/09:00am 17.3 18.4 14.6 84 1.6 S 2 6 1 3 1024.9 1024.8 6.8
25/08:30am 17.1 17.9 13.6 80 2.0 ENE 2 7 1 4 1024.7 1024.6 6.8
25/08:00am 17.3 18.6 15.1 87 1.3 NNE 2 6 1 3 1024.5 1024.4 6.8
25/07:30am 16.3 17.5 14.8 91 0.9 WSW 2 4 1 2 1024.0 1023.9 6.8
25/07:00am 15.8 16.9 14.5 92 0.7 SSW 2 6 1 3 1023.8 1023.7 6.8
25/06:30am 15.3 16.2 14.0 92 0.7 ENE 2 4 1 2 1023.5 1023.4 6.6
25/06:00am 15.3 16.7 14.3 94 0.6 CALM 0 6 0 3 1023.2 1023.1 6.6
25/05:30am 15.2 16.1 14.1 93 0.6 WNW 2 4 1 2 1023.0 1022.9 6.4
25/05:00am 15.3 15.0 14.3 94 0.6 SSW 9 19 5 10 1023.1 1023.0 6.2
25/04:30am 15.3 15.9 14.3 94 0.6 SSW 4 9 2 5 1022.7 1022.6 5.8
25/04:00am 15.0 15.1 14.0 94 0.6 SW 6 11 3 6 1022.5 1022.4 5.8
25/03:30am 15.3 15.5 14.3 94 0.6 SW 6 9 3 5 1022.5 1022.4 5.6
25/03:00am 15.5 16.6 14.5 94 0.6 SW 2 6 1 3 1022.7 1022.6 4.4
25/02:30am 15.7 16.4 14.6 93 0.6 SSW 4 15 2 8 1022.7 1022.6 1.6
25/02:00am 15.7 16.7 14.2 91 0.8 S 2 7 1 4 1022.9 1022.8 1.4
25/01:30am 16.1 17.2 14.5 90 0.9 WNW 2 6 1 3 1023.4 1023.3 1.2
25/01:00am 16.1 17.3 14.8 92 0.7 SW 2 6 1 3 1023.6 1023.5 1.2
25/12:30am 15.8 17.4 14.8 94 0.6 CALM 0 4 0 2 1023.7 1023.6 1.2
25/12:00am 15.9 17.5 14.9 94 0.6 CALM 0 0 0 0 1024.1 1024.0 1.2
 
Date/Time
EST
Temp
°C
App
Temp
°C
Dew
Point
°C
Rel
Hum
%
Delta-T
°C
Wind Press
QNH
hPa
Press
MSL
hPa
Rain since
9am
mm
Dir  Spd
km/h
Gust
km/h
Spd
kts
Gust
kts
24/11:30pm 16.0 17.5 14.7 92 0.7 CALM 0 2 0 1 1024.0 1023.9 1.2
24/11:00pm 15.8 17.1 14.0 89 1.0 CALM 0 4 0 2 1024.2 1024.1 0.2
24/10:30pm 15.8 16.4 13.1 84 1.5 W 2 4 1 2 1024.2 1024.1 0.2
24/10:00pm 16.4 16.6 12.9 80 1.9 S 4 7 2 4 1024.2 1024.1 0.2
24/09:30pm 17.0 16.6 13.1 78 2.2 ESE 7 24 4 13 1024.3 1024.2 0.2
24/09:00pm 16.9 17.4 12.8 77 2.3 S 2 6 1 3 1024.0 1023.9 0.0
24/08:30pm 17.0 17.5 12.7 76 2.4 E 2 7 1 4 1023.8 1023.7 0.0
24/08:00pm 17.4 16.9 12.5 73 2.7 ESE 7 13 4 7 1023.7 1023.6 0.0
24/07:30pm 17.7 18.1 12.6 72 2.8 WSW 2 7 1 4 1023.4 1023.3 0.0
24/07:00pm 17.8 18.3 12.9 73 2.7 NE 2 6 1 3 1022.9 1022.8 0.0
24/06:30pm 17.9 18.1 13.0 73 2.8 SE 4 6 2 3 1022.5 1022.4 0.0
24/06:00pm 18.5 18.6 12.7 69 3.2 ESE 4 17 2 9 1022.1 1022.0 0.0
24/05:30pm 19.2 18.6 12.2 64 3.9 ESE 7 15 4 8 1021.7 1021.6 0.0
24/05:00pm 20.2 19.6 11.7 58 4.7 ESE 6 15 3 8 1021.5 1021.4 0.0
24/04:30pm 20.3 19.7 12.3 60 4.5 ESE 7 19 4 10 1021.1 1021.0 0.0
24/04:00pm 22.0 20.4 10.2 47 6.4 E 9 19 5 10 1020.7 1020.6 0.0
24/03:30pm 23.0 21.5 10.4 45 6.9 ESE 9 17 5 9 1020.5 1020.4 0.0
24/03:00pm 23.4 20.9 9.8 42 7.4 ESE 13 24 7 13 1020.5 1020.4 0.0
24/02:30pm 23.8 21.4 10.1 42 7.5 E 13 20 7 11 1020.5 1020.4 0.0
24/02:00pm 23.8 22.4 10.8 44 7.2 E 9 15 5 8 1020.8 1020.7 0.0
24/01:30pm 22.6 21.2 9.7 44 7.0 ESE 7 11 4 6 1021.3 1021.2 0.0
24/01:00pm 22.9 20.6 9.0 41 7.4 ESE 11 20 6 11 1021.7 1021.6 0.0
24/12:30pm 23.8 21.3 8.2 37 8.3 E 11 22 6 12 1021.9 1021.8 0.0
24/12:00pm 24.2 22.4 7.8 35 8.6 ESE 7 17 4 9 1022.4 1022.3 0.0
24/11:30am 24.3 22.3 10.2 41 7.8 ESE 11 22 6 12 1022.9 1022.8 0.0
24/11:00am 23.5 21.2 9.1 40 7.7 ESE 11 19 6 10 1023.1 1023.0 0.0
24/10:30am 23.0 21.5 10.4 45 6.9 ESE 9 17 5 9 1023.6 1023.5 0.0
24/10:00am 23.1 21.4 12.4 51 6.1 E 13 22 7 12 1023.8 1023.7 0.0
24/09:30am 22.0 21.6 12.3 54 5.5 S 6 13 3 7 1024.1 1024.0 0.0
24/09:00am 21.6 21.8 13.0 58 4.9 ESE 4 9 2 5 1023.9 1023.8 0.0
24/08:30am 20.9 20.7 13.1 61 4.5 ESE 6 13 3 7 1023.6 1023.5 0.0
24/08:00am 19.9 19.5 13.1 65 3.9 ESE 7 13 4 7 1023.4 1023.3 0.0
24/07:30am 17.2 18.3 13.5 79 2.1 CALM 0 0 0 0 1023.3 1023.2 0.0
24/07:00am 14.8 15.9 13.5 92 0.7 CALM 0 0 0 0 1023.1 1023.0 0.0
24/06:30am 12.6 13.1 11.7 94 0.5 CALM 0 0 0 0 1022.9 1022.8 0.0
24/06:00am 12.0 12.4 11.1 94 0.5 CALM 0 0 0 0 1022.7 1022.6 0.0
24/05:30am 12.0 12.4 11.1 94 0.5 CALM 0 0 0 0 1022.4 1022.3 0.0
24/05:00am 12.5 13.0 11.6 94 0.5 CALM 0 0 0 0 1022.1 1022.0 0.0
24/04:30am 12.3 12.7 11.2 93 0.6 CALM 0 0 0 0 1021.7 1021.6 0.0
24/04:00am 12.4 12.9 11.5 94 0.5 CALM 0 0 0 0 1021.5 1021.4 0.0
24/03:30am 12.6 13.1 11.5 93 0.6 CALM 0 0 0 0 1021.6 1021.5 0.0
24/03:00am 12.2 12.5 10.9 92 0.7 CALM 0 0 0 0 1021.6 1021.5 0.0
24/02:30am 12.2 12.5 10.8 91 0.7 CALM 0 0 0 0 1021.8 1021.7 0.0
24/02:00am 12.7 13.1 11.3 91 0.7 CALM 0 0 0 0 1022.0 1021.9 0.0
24/01:30am 12.8 13.2 11.2 90 0.8 CALM 0 0 0 0 1022.3 1022.2 0.0
24/01:00am 13.1 13.6 11.7 91 0.7 CALM 0 0 0 0 1022.5 1022.4 0.0
24/12:30am 13.2 13.8 11.8 91 0.7 CALM 0 0 0 0 1022.8 1022.7 0.0
24/12:00am 12.9 13.3 11.1 89 0.9 CALM 0 0 0 0 1023.1 1023.0 0.0
 
Date/Time
EST
Temp
°C
App
Temp
°C
Dew
Point
°C
Rel
Hum
%
Delta-T
°C
Wind Press
QNH
hPa
Press
MSL
hPa
Rain since
9am
mm
Dir  Spd
km/h
Gust
km/h
Spd
kts
Gust
kts
23/11:30pm 12.9 13.1 10.4 85 1.3 CALM 0 0 0 0 1023.3 1023.2 0.0

Other Formats:

Comma delimited format used in spreadsheet applications
http://www.bom.gov.au/fwo/IDQ60801/IDQ60801.95572.axf

JavaScript Object Notation format (JSON) in row-major order
http://www.bom.gov.au/fwo/IDQ60801/IDQ60801.95572.json